Time;durP1;ratioP1;P1;durP2;ratioP2;P2;SDS_P1;SDS_P2;PMS_P1;PMS_P2;Temp;Humidity;BMP_temperature;BMP_pressure;BME280_temperature;BME280_humidity;BME280_pressure;Samples;Min_cycle;Max_cycle;Signal;HPM_P1;HPM_P2
2022/02/07 12:54:37;;;;;;;4.78;0.98;;;;;;;5.55;79.72;102737.09;5103137;27;20118;-79
2022/02/07 12:57:03;;;;;;;5.07;1.17;;;;;;;5.58;79.52;102739.75;5091276;28;20085;-79
2022/02/07 12:59:29;;;;;;;12.18;1.60;;;;;;;5.63;78.70;102752.78;5086922;28;20036;-79
2022/02/07 13:01:54;;;;;;;6.70;1.60;;;;;;;5.66;78.90;102746.75;5090372;28;20112;-79
2022/02/07 13:04:22;;;;;;;7.78;1.33;;;;;;;5.70;79.33;102740.72;5090951;28;20479;-79
2022/02/07 13:06:55;;;;;;;5.25;1.42;;;;;;;5.73;77.76;102749.41;5092684;28;20040;-79
2022/02/07 13:09:31;;;;;;;10.02;1.08;;;;;;;5.76;77.68;102757.22;5089248;28;20091;-79
2022/02/07 13:14:42;;;;;;;6.72;1.23;;;;;;;5.84;77.63;102754.72;5091113;28;20324;-79
2022/02/07 13:17:09;;;;;;;10.45;1.60;;;;;;;5.85;78.10;102763.41;5091329;28;20040;-79
2022/02/07 13:19:37;;;;;;;5.55;0.88;;;;;;;5.84;77.17;102762.53;5092009;28;20303;-79
2022/02/07 13:22:03;;;;;;;5.35;1.20;;;;;;;5.85;77.64;102773.78;5090396;28;20027;-79
2022/02/07 13:24:32;;;;;;;7.88;1.33;;;;;;;5.84;77.35;102759.03;5093398;28;20055;-79
2022/02/07 13:27:02;;;;;;;11.60;1.88;;;;;;;5.84;77.67;102759.94;5091225;28;20103;-79
2022/02/07 13:29:41;;;;;;;7.65;1.65;;;;;;;5.86;77.36;102765.16;5115805;27;20048;-79
2022/02/07 13:32:08;;;;;;;11.32;1.42;;;;;;;5.89;77.95;102762.56;5086172;28;20316;-79
2022/02/07 13:34:38;;;;;;;10.60;1.60;;;;;;;5.87;77.05;102769.47;5086413;28;20035;-79
2022/02/07 13:37:13;;;;;;;13.43;1.50;;;;;;;5.84;77.55;102772.94;5091725;28;20373;-79
2022/02/07 13:39:53;;;;;;;10.07;1.50;;;;;;;5.87;78.24;102770.34;5093637;28;20047;-80
2022/02/07 13:42:27;;;;;;;16.70;2.22;;;;;;;5.86;77.57;102778.16;5089003;28;20040;-79
2022/02/07 13:45:02;;;;;;;7.18;1.23;;;;;;;5.85;77.62;102760.78;5086636;28;20075;-79
2022/02/07 13:47:28;;;;;;;9.32;1.45;;;;;;;5.85;77.95;102769.47;5082677;28;20066;-79
2022/02/07 13:49:56;;;;;;;14.68;2.00;;;;;;;5.86;77.82;102779.00;5081552;28;20351;-79
2022/02/07 13:52:22;;;;;;;6.35;1.30;;;;;;;5.88;76.89;102797.25;5113008;28;20051;-79
2022/02/07 13:54:48;;;;;;;13.10;1.70;;;;;;;5.86;76.37;102775.56;5116675;28;20038;-79
2022/02/07 13:57:13;;;;;;;8.85;1.65;;;;;;;5.81;75.77;102785.91;5101002;28;20047;-79
2022/02/07 13:59:39;;;;;;;14.20;1.90;;;;;;;5.80;75.97;102778.06;5082791;28;20038;-79
2022/02/07 14:02:26;;;;;;;8.93;1.33;;;;;;;5.83;77.19;102772.91;5100587;28;20185;-79
2022/02/07 14:04:53;;;;;;;7.50;1.80;;;;;;;5.82;76.94;102769.44;5112601;28;20027;-80
2022/02/07 14:07:18;;;;;;;3.22;1.00;;;;;;;5.78;77.67;102762.44;5070488;28;20032;-79
2022/02/07 14:09:44;;;;;;;9.18;1.42;;;;;;;5.76;78.06;102754.63;5102409;28;20323;-79
2022/02/07 14:12:10;;;;;;;5.40;1.60;;;;;;;5.76;77.76;102753.75;5086074;28;20149;-79
2022/02/07 14:14:35;;;;;;;9.55;1.23;;;;;;;5.73;77.46;102752.03;5085349;28;20035;-79
2022/02/07 14:17:01;;;;;;;6.70;1.23;;;;;;;5.73;78.46;102753.72;5085915;28;20028;-79
2022/02/07 14:19:40;;;;;;;7.57;1.45;;;;;;;5.74;78.01;102766.75;5103500;28;20040;-79
2022/02/07 14:22:07;;;;;;;6.32;0.80;;;;;;;5.75;76.92;102759.84;5088053;28;20037;-79
2022/02/07 14:24:32;;;;;;;4.65;1.08;;;;;;;5.76;77.81;102769.38;5062826;28;20035;-80
2022/02/07 14:26:57;;;;;;;8.18;1.73;;;;;;;5.75;77.45;102785.84;5076591;28;20104;-79
2022/02/07 14:29:23;;;;;;;11.35;1.30;;;;;;;5.77;77.51;102787.59;5096805;28;20050;-79
2022/02/07 14:31:48;;;;;;;11.10;1.30;;;;;;;5.75;77.79;102784.09;5062875;28;20282;-79
2022/02/07 14:34:14;;;;;;;5.43;1.60;;;;;;;5.76;77.59;102787.56;5061462;28;20401;-79
2022/02/07 14:36:39;;;;;;;7.25;1.02;;;;;;;5.75;76.74;102797.09;5061177;28;20027;-79
2022/02/07 14:39:06;;;;;;;8.75;1.08;;;;;;;5.74;76.93;102790.16;5095663;28;20350;-79
2022/02/07 14:41:32;;;;;;;5.43;1.13;;;;;;;5.72;76.52;102802.25;5088921;28;20043;-79
2022/02/07 14:44:01;;;;;;;7.00;0.90;;;;;;;5.73;76.20;102797.91;5081512;28;20024;-79
2022/02/07 14:46:34;;;;;;;6.68;1.25;;;;;;;5.71;76.43;102782.34;5073110;28;20028;-79
2022/02/07 14:49:00;;;;;;;7.22;1.40;;;;;;;5.70;75.56;102787.50;5077191;28;20038;-79
2022/02/07 14:51:26;;;;;;;7.82;1.42;;;;;;;5.68;76.22;102784.91;5091023;28;20590;-79
2022/02/07 14:53:52;;;;;;;5.13;1.10;;;;;;;5.65;77.01;102781.38;5093016;28;20115;-79
2022/02/07 14:56:18;;;;;;;6.78;1.00;;;;;;;5.67;77.01;102790.06;5078635;28;20048;-79
2022/02/07 14:58:43;;;;;;;7.30;1.17;;;;;;;5.66;76.77;102781.41;5096255;28;20032;-79
2022/02/07 15:01:09;;;;;;;6.13;1.17;;;;;;;5.63;77.31;102791.75;5095067;28;20045;-79
2022/02/07 15:03:34;;;;;;;6.22;1.30;;;;;;;5.63;77.55;102786.56;5076475;28;20040;-80
2022/02/07 15:06:00;;;;;;;5.50;1.35;;;;;;;5.63;76.74;102802.16;5088629;28;20100;-80
2022/02/07 15:08:27;;;;;;;6.68;1.33;;;;;;;5.63;77.24;102786.56;5072826;28;20039;-79
2022/02/07 15:10:53;;;;;;;5.03;1.15;;;;;;;5.63;76.93;102794.38;5096328;28;20186;-79
2022/02/07 15:13:18;;;;;;;7.47;1.27;;;;;;;5.57;76.07;102792.56;5065417;28;20402;-80
2022/02/07 15:15:44;;;;;;;7.25;1.23;;;;;;;5.57;76.42;102802.09;5076576;28;20089;-79
2022/02/07 15:18:10;;;;;;;3.55;0.93;;;;;;;5.50;76.29;102798.53;5078334;28;20555;-79
2022/02/07 15:20:37;;;;;;;8.18;1.73;;;;;;;5.51;76.40;102804.59;5099547;28;20043;-79
2022/02/07 15:23:03;;;;;;;4.20;1.23;;;;;;;5.50;75.95;102803.75;5107497;28;20038;-79
2022/02/07 15:25:34;;;;;;;3.42;0.70;;;;;;;5.48;75.63;102804.59;5106277;28;20039;-80
2022/02/07 15:28:04;;;;;;;4.03;0.88;;;;;;;5.46;76.10;102807.16;5103258;28;20358;-80
2022/02/07 15:30:35;;;;;;;8.27;1.08;;;;;;;5.44;76.35;102819.28;5097886;28;20044;-80
2022/02/07 15:33:04;;;;;;;12.48;2.13;;;;;;;5.42;76.48;102818.38;5059469;28;20035;-80
2022/02/07 15:35:30;;;;;;;5.05;0.95;;;;;;;5.42;76.27;102812.31;5078449;28;20028;-79
2022/02/07 15:37:56;;;;;;;6.65;1.65;;;;;;;5.41;76.16;102816.63;5095139;28;20038;-80
2022/02/07 15:40:21;;;;;;;5.97;0.93;;;;;;;5.36;76.15;102818.28;5091687;28;20036;-80
2022/02/07 15:42:47;;;;;;;4.78;0.95;;;;;;;5.31;75.95;102810.47;5068050;28;20103;-79
2022/02/07 15:45:15;;;;;;;5.60;0.90;;;;;;;5.25;76.41;102809.50;5090736;28;20103;-79
2022/02/07 15:47:43;;;;;;;8.55;1.00;;;;;;;5.20;76.78;102804.22;5062017;28;20035;-79
2022/02/07 15:50:11;;;;;;;9.68;1.08;;;;;;;5.19;77.47;102799.91;5073555;28;20103;-79
2022/02/07 15:52:41;;;;;;;7.35;1.20;;;;;;;5.16;77.35;102810.25;5094125;28;20246;-79
2022/02/07 15:55:09;;;;;;;6.03;1.10;;;;;;;5.16;77.32;102800.72;5095740;28;20386;-79
2022/02/07 15:57:34;;;;;;;7.22;1.20;;;;;;;5.15;77.78;102808.50;5092611;28;20036;-79
2022/02/07 16:00:00;;;;;;;8.82;1.02;;;;;;;5.10;77.69;102803.25;5066632;28;20032;-79
2022/02/07 16:02:31;;;;;;;7.13;1.40;;;;;;;5.07;78.06;102808.38;5077005;28;20107;-79
2022/02/07 16:04:58;;;;;;;8.05;2.65;;;;;;;5.08;78.46;102793.69;5092875;28;20044;-79
2022/02/07 16:07:23;;;;;;;5.90;1.23;;;;;;;5.06;78.49;102797.97;5072764;28;20453;-79
2022/02/07 16:09:49;;;;;;;9.30;1.40;;;;;;;5.04;78.01;102785.00;5071479;28;20048;-79
2022/02/07 16:12:17;;;;;;;15.63;1.80;;;;;;;5.03;78.07;102787.56;5072611;28;20051;-79
2022/02/07 16:14:43;;;;;;;8.40;1.40;;;;;;;5.02;77.96;102775.41;5093051;28;20094;-79
2022/02/07 16:17:13;;;;;;;10.50;1.63;;;;;;;5.03;77.56;102787.56;5057170;28;20044;-79
2022/02/07 16:19:39;;;;;;;3.92;1.00;;;;;;;5.03;77.80;102785.81;5054882;28;20365;-79
2022/02/07 16:22:07;;;;;;;7.55;1.42;;;;;;;5.04;77.85;102782.41;5073132;28;20039;-79
2022/02/07 16:24:34;;;;;;;6.20;1.90;;;;;;;5.07;77.89;102791.94;5075295;28;20128;-79
2022/02/07 16:26:59;;;;;;;11.02;1.60;;;;;;;5.06;77.43;102793.66;5070970;28;20302;-79
2022/02/07 16:29:25;;;;;;;3.70;1.02;;;;;;;5.08;77.77;102801.50;5086817;28;20036;-79
2022/02/07 16:31:51;;;;;;;9.85;1.15;;;;;;;5.09;77.87;102803.22;5059036;28;20233;-80
2022/02/07 16:34:20;;;;;;;8.75;1.25;;;;;;;5.09;77.93;102803.22;5060566;28;20093;-80
2022/02/07 16:36:48;;;;;;;9.40;1.75;;;;;;;5.08;78.00;102802.34;5039627;28;20056;-79
2022/02/07 16:39:14;;;;;;;8.00;1.45;;;;;;;5.12;78.26;102803.28;5074267;28;20035;-80
2022/02/07 16:41:41;;;;;;;6.47;1.23;;;;;;;5.10;77.54;102805.84;5078713;28;20139;-80
2022/02/07 16:44:11;;;;;;;4.50;1.05;;;;;;;5.12;78.24;102801.53;5076011;28;20038;-80
2022/02/07 16:46:48;;;;;;;7.95;1.52;;;;;;;5.14;78.29;102799.81;5091080;28;20028;-79
2022/02/07 16:49:26;;;;;;;7.35;1.33;;;;;;;5.14;78.04;102806.75;5068765;28;20333;-80
2022/02/07 16:51:54;;;;;;;4.53;1.33;;;;;;;5.14;78.17;102804.16;5060718;28;20062;-80
2022/02/07 16:54:20;;;;;;;8.88;1.85;;;;;;;5.13;78.05;102802.41;5070269;28;20150;-80
2022/02/07 16:56:47;;;;;;;11.00;1.60;;;;;;;5.13;77.98;102794.59;5085555;28;20039;-80
2022/02/07 16:59:13;;;;;;;5.97;1.05;;;;;;;5.15;78.25;102798.13;5076934;28;20114;-80
2022/02/07 17:01:45;;;;;;;5.95;1.13;;;;;;;5.16;78.66;102800.72;5104178;28;20062;-80
2022/02/07 17:04:10;;;;;;;9.73;1.52;;;;;;;5.14;78.12;102806.75;5078185;28;20381;-79
2022/02/07 17:06:35;;;;;;;14.38;1.80;;;;;;;5.11;78.37;102812.78;5071463;28;20039;-80
2022/02/07 17:09:01;;;;;;;5.00;1.52;;;;;;;5.12;78.55;102819.72;5103279;28;20035;-80
2022/02/07 17:11:26;;;;;;;10.02;1.60;;;;;;;5.12;78.54;102818.84;5104774;28;20393;-80
2022/02/07 17:13:52;;;;;;;7.50;1.58;;;;;;;5.11;78.54;102822.28;5083872;28;20103;-80
2022/02/07 17:16:17;;;;;;;11.68;2.08;;;;;;;5.11;78.73;102811.91;5055013;28;20399;-80
2022/02/07 17:18:43;;;;;;;14.98;2.05;;;;;;;5.11;79.06;102815.38;5064279;28;20039;-80
2022/02/07 17:21:08;;;;;;;19.25;2.40;;;;;;;5.11;79.41;102805.00;5075889;28;20274;-80
2022/02/07 17:23:35;;;;;;;7.20;1.55;;;;;;;5.14;79.30;102804.16;5088692;28;20032;-80
2022/02/07 17:26:01;;;;;;;15.10;2.30;;;;;;;5.14;79.23;102807.63;5099328;28;20084;-80
2022/02/07 17:28:26;;;;;;;9.45;2.10;;;;;;;5.13;79.71;102805.88;5082439;28;20020;-80
2022/02/07 17:30:52;;;;;;;7.80;1.63;;;;;;;5.14;79.42;102802.41;5060603;28;20197;-80
2022/02/07 17:33:17;;;;;;;6.50;1.55;;;;;;;5.13;79.27;102792.91;5102194;28;20148;-80
2022/02/07 17:35:46;;;;;;;18.95;2.83;;;;;;;5.13;79.59;102794.59;5079643;28;20056;-80
2022/02/07 17:38:13;;;;;;;10.73;2.03;;;;;;;5.12;79.17;102790.28;5093519;28;20385;-80
2022/02/07 17:40:40;;;;;;;13.20;2.05;;;;;;;5.14;79.31;102796.38;5076002;28;20036;-80
2022/02/07 17:43:10;;;;;;;5.25;2.17;;;;;;;5.13;79.50;102786.81;5081397;28;20335;-80
2022/02/07 17:45:39;;;;;;;9.48;1.80;;;;;;;5.16;79.77;102789.47;5075941;28;20016;-79
2022/02/07 17:48:05;;;;;;;10.05;2.67;;;;;;;5.16;79.53;102784.25;5078705;28;20035;-79
2022/02/07 17:50:31;;;;;;;11.60;2.03;;;;;;;5.18;79.77;102785.16;5068026;28;20366;-79
2022/02/07 17:52:56;;;;;;;14.55;1.90;;;;;;;5.17;79.95;102776.50;5076046;28;20048;-79
2022/02/07 17:55:22;;;;;;;10.88;1.90;;;;;;;5.18;80.09;102774.75;5080070;28;20042;-79
2022/02/07 17:57:47;;;;;;;11.88;2.38;;;;;;;5.18;80.35;102767.88;5071216;28;20301;-79
2022/02/07 18:00:15;;;;;;;6.88;2.05;;;;;;;5.22;80.54;102773.06;5076673;28;20266;-80
2022/02/07 18:02:41;;;;;;;4.53;1.58;;;;;;;5.22;80.59;102762.69;5096294;28;20050;-80
2022/02/07 18:05:08;;;;;;;6.38;1.80;;;;;;;5.25;80.72;102767.94;5092674;28;20335;-80
2022/02/07 18:07:37;;;;;;;7.03;1.85;;;;;;;5.28;80.71;102763.66;5074924;28;20063;-80
2022/02/07 18:10:03;;;;;;;7.30;1.67;;;;;;;5.29;80.91;102759.31;5078368;28;20032;-80
2022/02/07 18:12:28;;;;;;;7.80;2.20;;;;;;;5.29;80.86;102754.97;5097805;28;20449;-80
2022/02/07 18:14:54;;;;;;;10.02;2.20;;;;;;;5.30;80.63;102753.28;5093107;28;20046;-80
2022/02/07 18:17:19;;;;;;;7.22;1.73;;;;;;;5.29;80.55;102747.19;5060823;28;20040;-80
2022/02/07 18:19:46;;;;;;;14.05;2.70;;;;;;;5.28;80.96;102748.06;5056898;28;20032;-80
2022/02/07 18:22:12;;;;;;;8.93;2.38;;;;;;;5.29;80.71;102741.13;5080632;28;20048;-80
2022/02/07 18:24:38;;;;;;;17.05;2.10;;;;;;;5.29;80.55;102748.91;5067233;28;20439;-80
2022/02/07 18:27:04;;;;;;;13.38;2.50;;;;;;;5.31;80.81;102747.22;5054363;28;20366;-80
2022/02/07 18:29:45;;;;;;;10.73;1.80;;;;;;;5.31;80.87;102755.00;5079465;28;20044;-80
2022/02/07 18:32:10;;;;;;;12.98;2.08;;;;;;;5.29;80.98;102752.38;5097500;28;20100;-80
2022/02/07 18:34:37;;;;;;;8.00;1.63;;;;;;;5.28;81.08;102755.00;5067318;28;20037;-80
2022/02/07 18:37:02;;;;;;;12.70;1.67;;;;;;;5.26;81.26;102744.56;5088626;28;20040;-80
2022/02/07 18:39:28;;;;;;;23.45;2.88;;;;;;;5.27;81.40;102748.03;5097812;28;20106;-80
2022/02/07 18:42:01;;;;;;;12.52;1.95;;;;;;;5.27;81.50;102748.91;5060731;28;20068;-80
2022/02/07 18:44:29;;;;;;;13.73;2.42;;;;;;;5.27;81.65;102755.81;5085335;28;20534;-80
2022/02/07 18:46:54;;;;;;;12.48;2.13;;;;;;;5.27;82.07;102755.81;5099121;28;20301;-80
2022/02/07 18:49:20;;;;;;;15.10;2.80;;;;;;;5.27;81.90;102741.09;5095549;28;20040;-80
2022/02/07 18:51:45;;;;;;;11.38;2.00;;;;;;;5.28;82.16;102740.25;5080860;28;20068;-80
2022/02/07 18:54:11;;;;;;;14.57;2.42;;;;;;;5.29;82.04;102742.00;5093668;28;20107;-79
2022/02/07 18:56:39;;;;;;;11.13;2.10;;;;;;;5.33;81.84;102743.78;5098897;28;20212;-79
2022/02/07 18:59:14;;;;;;;7.95;2.03;;;;;;;5.34;81.70;102739.47;5097234;28;20056;-79
2022/02/07 19:01:51;;;;;;;17.27;2.88;;;;;;;5.35;81.76;102730.81;5065875;28;20028;-79
2022/02/07 19:04:33;;;;;;;11.77;2.88;;;;;;;5.34;81.66;102734.25;5087364;28;20034;-79
2022/02/07 19:06:58;;;;;;;10.82;2.35;;;;;;;5.33;81.90;102732.50;5065166;28;20345;-79
2022/02/07 19:09:23;;;;;;;14.20;2.47;;;;;;;5.32;82.17;102738.56;5097000;28;20059;-79
2022/02/07 19:11:50;;;;;;;10.88;2.72;;;;;;;5.32;82.18;102730.78;5078924;28;20204;-79
2022/02/07 19:14:15;;;;;;;9.10;2.47;;;;;;;5.32;82.00;102736.84;5074104;28;20083;-79
2022/02/07 19:16:45;;;;;;;17.77;2.10;;;;;;;5.33;82.08;102727.31;5097069;28;20344;-79
2022/02/07 19:19:19;;;;;;;11.20;2.30;;;;;;;5.32;81.73;102728.19;5096265;28;20058;-79
2022/02/07 19:21:54;;;;;;;10.13;2.40;;;;;;;5.32;81.53;102725.59;5065515;28;20036;-79
2022/02/07 19:24:35;;;;;;;8.85;1.95;;;;;;;5.35;81.49;102712.63;5063661;28;20082;-79
2022/02/07 19:27:12;;;;;;;11.18;1.95;;;;;;;5.36;81.46;102703.97;5080494;28;20399;-79
2022/02/07 19:29:42;;;;;;;19.35;2.40;;;;;;;5.36;81.12;102711.75;5063343;28;20035;-79
2022/02/07 19:32:17;;;;;;;14.18;2.33;;;;;;;5.38;81.36;102710.06;5097092;28;20413;-79
2022/02/07 19:37:15;;;;;;;13.70;2.22;;;;;;;5.41;81.51;102709.22;5097384;28;20055;-79
2022/02/07 19:39:40;;;;;;;10.07;2.10;;;;;;;5.42;81.68;102710.97;5072991;28;20411;-79
2022/02/07 19:44:37;;;;;;;10.85;2.63;;;;;;;5.45;81.77;102711.84;5082751;28;20362;-80
2022/02/07 19:47:03;;;;;;;14.63;2.55;;;;;;;5.49;82.07;102702.38;5080365;28;20036;-79
2022/02/07 19:49:28;;;;;;;11.73;2.30;;;;;;;5.48;82.09;102709.31;5071487;28;20047;-79
2022/02/07 19:51:54;;;;;;;12.23;2.42;;;;;;;5.50;82.04;102710.19;5077956;28;20104;-80
2022/02/07 19:54:19;;;;;;;13.05;2.45;;;;;;;5.52;82.12;102713.66;5078911;28;20048;-79
2022/02/07 19:56:45;;;;;;;12.65;2.33;;;;;;;5.56;82.24;102724.97;5093492;28;20073;-79
2022/02/07 19:59:11;;;;;;;12.13;2.05;;;;;;;5.58;82.27;102715.47;5073682;28;20226;-79
2022/02/07 20:01:37;;;;;;;11.15;2.03;;;;;;;5.58;82.42;102711.16;5085958;28;20044;-80
2022/02/07 20:04:03;;;;;;;14.85;3.15;;;;;;;5.60;82.64;102712.88;5084834;28;20367;-80
2022/02/07 20:06:29;;;;;;;9.82;2.35;;;;;;;5.61;82.78;102720.69;5086809;28;20107;-80
2022/02/07 20:08:57;;;;;;;12.48;2.25;;;;;;;5.62;82.86;102709.47;5089094;28;20275;-80
2022/02/07 20:11:34;;;;;;;11.23;2.85;;;;;;;5.63;83.21;102710.31;5089685;28;20051;-80
2022/02/07 20:14:00;;;;;;;16.38;2.80;;;;;;;5.65;83.38;102725.06;5091887;28;20036;-80
2022/02/07 20:16:26;;;;;;;16.45;3.20;;;;;;;5.68;83.36;102732.91;5090814;28;20316;-80
2022/02/07 20:18:52;;;;;;;19.20;2.85;;;;;;;5.71;83.61;102729.44;5090995;28;20048;-80
2022/02/07 20:21:18;;;;;;;12.13;2.78;;;;;;;5.73;83.74;102723.41;5088133;28;20364;-80
2022/02/07 20:23:43;;;;;;;11.43;2.67;;;;;;;5.76;83.91;102726.03;5057854;28;20032;-80
2022/02/07 20:26:08;;;;;;;11.23;2.65;;;;;;;5.78;83.99;102731.25;5076192;28;20224;-80
2022/02/07 20:28:35;;;;;;;7.30;2.03;;;;;;;5.78;84.30;102728.66;5077137;28;20081;-80
2022/02/07 20:31:02;;;;;;;21.42;2.88;;;;;;;5.78;84.33;102728.66;5095719;28;20254;-80
2022/02/07 20:33:37;;;;;;;18.23;3.42;;;;;;;5.82;84.49;102725.25;5066203;28;20336;-80
2022/02/07 20:36:05;;;;;;;17.88;3.42;;;;;;;5.84;84.64;102730.44;5095647;28;20035;-80
2022/02/07 20:38:32;;;;;;;17.10;3.00;;;;;;;5.85;84.73;102714.00;5064180;28;20028;-80
2022/02/07 20:40:57;;;;;;;24.00;3.97;;;;;;;5.88;85.14;102714.88;5073676;28;20036;-80
2022/02/07 20:43:23;;;;;;;27.50;3.47;;;;;;;5.89;84.92;102711.41;5070682;28;20052;-80
2022/02/07 20:45:51;;;;;;;22.40;3.65;;;;;;;5.90;84.93;102701.91;5094644;28;20036;-80
2022/02/07 20:48:24;;;;;;;9.13;2.45;;;;;;;5.89;85.20;102708.81;5061510;28;20130;-80
2022/02/07 20:50:50;;;;;;;23.67;3.55;;;;;;;5.92;85.05;102715.78;5082074;28;20032;-80
2022/02/07 20:53:20;;;;;;;16.80;3.55;;;;;;;5.94;85.33;102714.94;5073176;28;20081;-80
2022/02/07 20:55:47;;;;;;;19.10;3.30;;;;;;;5.94;85.39;102732.28;5077156;28;20239;-80
2022/02/07 20:58:14;;;;;;;17.52;4.07;;;;;;;5.97;85.56;102714.13;5086195;28;20035;-80
2022/02/07 21:00:39;;;;;;;18.95;3.70;;;;;;;5.98;85.65;102712.41;5094484;28;20024;-80
2022/02/07 21:03:07;;;;;;;22.13;2.90;;;;;;;5.99;85.60;102716.75;5059517;28;20044;-80
2022/02/07 21:05:34;;;;;;;17.70;3.20;;;;;;;5.98;85.92;102723.66;5070820;28;20036;-80
2022/02/07 21:08:02;;;;;;;27.73;3.72;;;;;;;6.00;85.83;102724.53;5076175;28;20093;-80
2022/02/07 21:10:29;;;;;;;20.00;3.25;;;;;;;6.00;85.84;102721.94;5074148;28;20339;-80
2022/02/07 21:12:55;;;;;;;20.52;3.42;;;;;;;6.02;85.86;102728.06;5051811;28;20032;-80
2022/02/07 21:15:20;;;;;;;21.35;4.05;;;;;;;6.03;85.99;102719.38;5074410;28;20044;-80
2022/02/07 21:17:46;;;;;;;15.93;3.85;;;;;;;6.05;86.24;102722.00;5076139;28;20039;-80
2022/02/07 21:20:16;;;;;;;16.38;3.45;;;;;;;6.08;86.57;102722.03;5062866;28;20036;-80
2022/02/07 21:22:43;;;;;;;20.08;3.88;;;;;;;6.09;86.66;102715.94;5064325;28;20223;-80
2022/02/07 21:25:10;;;;;;;16.73;3.03;;;;;;;6.12;86.98;102715.97;5099402;28;20357;-80
2022/02/07 21:27:36;;;;;;;23.77;3.70;;;;;;;6.14;87.26;102724.66;5072150;28;20347;-80
2022/02/07 21:30:02;;;;;;;19.20;3.47;;;;;;;6.15;87.65;102724.69;5080094;28;20035;-80
2022/02/07 21:32:28;;;;;;;25.42;3.78;;;;;;;6.16;87.93;102717.75;5085276;28;20055;-80
2022/02/07 21:34:54;;;;;;;19.23;3.28;;;;;;;6.19;88.09;102720.38;5096017;28;20041;-80
2022/02/07 21:37:19;;;;;;;17.90;3.85;;;;;;;6.22;88.35;102719.50;5064115;28;20047;-80
2022/02/07 21:39:45;;;;;;;30.13;3.60;;;;;;;6.24;89.18;102726.50;5099230;28;20036;-80
2022/02/07 21:42:10;;;;;;;31.52;5.00;;;;;;;6.23;90.28;102713.47;5093910;28;20358;-80
2022/02/07 21:44:37;;;;;;;30.08;3.78;;;;;;;6.23;90.85;102713.47;5097328;28;20060;-80
2022/02/07 21:47:04;;;;;;;21.67;2.80;;;;;;;6.24;90.90;102715.19;5100997;28;20043;-80
2022/02/07 21:49:31;;;;;;;14.80;2.97;;;;;;;6.26;90.99;102716.09;5099083;28;20028;-80
2022/02/07 21:51:58;;;;;;;23.27;3.65;;;;;;;6.29;91.40;102734.31;5061097;28;20036;-80
2022/02/07 21:54:23;;;;;;;20.77;3.38;;;;;;;6.31;91.67;102725.69;5106660;28;20044;-80
2022/02/07 21:56:49;;;;;;;18.27;3.33;;;;;;;6.32;92.41;102716.13;5091660;28;20020;-80
2022/02/07 21:59:15;;;;;;;24.70;3.80;;;;;;;6.32;92.99;102701.38;5071299;28;20290;-80
2022/02/07 22:01:42;;;;;;;22.63;3.15;;;;;;;6.34;93.10;102704.00;5062134;28;20039;-80
2022/02/07 22:04:08;;;;;;;28.60;4.57;;;;;;;6.36;93.56;102710.09;5098402;28;20036;-80
2022/02/07 22:06:35;;;;;;;23.55;3.75;;;;;;;6.38;94.00;102710.97;5087283;28;20062;-80
2022/02/07 22:09:05;;;;;;;27.30;4.95;;;;;;;6.39;94.51;102704.03;5109233;28;20070;-80
2022/02/07 22:11:36;;;;;;;19.45;3.65;;;;;;;6.39;94.35;102704.03;5099107;28;20036;-80
2022/02/07 22:14:06;;;;;;;26.35;3.85;;;;;;;6.40;94.64;102695.34;5066612;28;20039;-80
2022/02/07 22:16:38;;;;;;;17.83;3.13;;;;;;;6.44;94.97;102695.41;5074502;28;20208;-80
2022/02/07 22:19:05;;;;;;;22.10;3.75;;;;;;;6.45;94.93;102701.47;5097198;28;20040;-80
2022/02/07 22:21:31;;;;;;;21.95;3.67;;;;;;;6.48;94.80;102693.69;5077241;28;20324;-80
2022/02/07 22:23:58;;;;;;;22.35;3.20;;;;;;;6.50;94.83;102699.78;5080530;28;20096;-80
2022/02/07 22:26:25;;;;;;;15.82;2.78;;;;;;;6.53;94.88;102705.88;5108312;28;20035;-80
2022/02/07 22:29:01;;;;;;;25.52;2.85;;;;;;;6.55;94.76;102721.50;5103138;28;20043;-80
2022/02/07 22:31:31;;;;;;;20.52;3.47;;;;;;;6.56;94.97;102710.22;5089354;28;20145;-80
2022/02/07 22:34:14;;;;;;;26.75;3.72;;;;;;;6.60;94.83;102711.09;5087232;28;20376;-80
2022/02/07 22:36:39;;;;;;;26.65;3.50;;;;;;;6.60;95.00;102705.88;5104148;28;20044;-80
2022/02/07 22:39:05;;;;;;;21.10;3.38;;;;;;;6.63;95.07;102711.13;5102677;28;20100;-80
2022/02/07 22:41:30;;;;;;;20.33;4.07;;;;;;;6.65;95.48;102723.28;5072565;28;20032;-80
2022/02/07 22:43:55;;;;;;;21.48;2.70;;;;;;;6.65;95.60;102709.41;5097913;28;20036;-80
2022/02/07 22:46:21;;;;;;;14.23;2.83;;;;;;;6.65;95.43;102712.88;5074906;28;20214;-80
2022/02/07 22:48:47;;;;;;;18.02;2.78;;;;;;;6.67;95.41;102711.13;5096821;28;20044;-80
2022/02/07 22:51:12;;;;;;;18.65;3.28;;;;;;;6.69;95.20;102709.44;5070103;28;20081;-80
2022/02/07 22:53:39;;;;;;;20.77;3.45;;;;;;;6.71;95.28;102712.03;5066037;28;20047;-80
2022/02/07 22:56:06;;;;;;;16.42;3.03;;;;;;;6.70;95.34;102708.56;5073815;28;20212;-80
2022/02/07 22:58:31;;;;;;;34.25;4.30;;;;;;;6.71;95.56;102705.09;5077505;28;20366;-80
2022/02/07 23:00:59;;;;;;;20.98;2.60;;;;;;;6.72;95.35;102699.00;5089533;28;20032;-80
2022/02/07 23:03:25;;;;;;;18.27;3.60;;;;;;;6.73;95.29;102695.56;5091915;28;20108;-80
2022/02/07 23:05:53;;;;;;;16.35;3.60;;;;;;;6.76;95.21;102696.44;5093941;28;20037;-80
2022/02/07 23:13:44;;;;;;;13.40;3.72;;;;;;;6.82;95.38;102697.34;5079598;28;20040;-80
2022/02/07 23:16:34;;;;;;;22.80;4.00;;;;;;;6.83;94.96;102704.28;5096068;28;20052;-80
2022/02/07 23:35:26;;;;;;;11.70;2.42;;;;;;;6.90;94.49;102685.22;5076822;28;20219;-80
2022/02/07 23:43:33;;;;;;;23.80;3.17;;;;;;;6.91;94.61;102667.84;5083262;28;20071;-80
2022/02/07 23:46:27;;;;;;;22.33;3.53;;;;;;;6.95;94.67;102667.00;5079289;28;20292;-80
2022/02/07 23:49:08;;;;;;;20.42;2.88;;;;;;;6.96;94.69;102668.72;5079428;28;20048;-80
2022/02/07 23:54:10;;;;;;;16.50;2.38;;;;;;;7.00;94.85;102660.06;5083865;28;20095;-80
2022/02/07 23:59:19;;;;;;;19.60;3.55;;;;;;;7.01;95.18;102648.78;5106233;28;20040;-80
